Time;durP1;ratioP1;P1;durP2;ratioP2;P2;SDS_P1;SDS_P2;PMS_P1;PMS_P2;Temp;Humidity;BMP_temperature;BMP_pressure;BME280_temperature;BME280_humidity;BME280_pressure;Samples;Min_cycle;Max_cycle;Signal;HPM_P1;HPM_P2
2021/11/23 00:00:46;;;;;;;37.93;21.03;;;1.60;99.90;;;;;;4394337;32;20139;-66
2021/11/23 00:03:17;;;;;;;39.53;21.27;;;1.60;99.90;;;;;;4393970;32;20470;-66
2021/11/23 00:05:46;;;;;;;39.63;21.07;;;1.50;99.90;;;;;;4392596;32;20464;-65
2021/11/23 00:08:14;;;;;;;42.90;21.00;;;1.60;99.90;;;;;;4394724;32;20166;-65
2021/11/23 00:10:42;;;;;;;40.57;21.30;;;1.60;99.90;;;;;;4393588;32;20430;-66
2021/11/23 00:13:10;;;;;;;38.93;21.00;;;1.60;99.90;;;;;;4393596;32;20413;-65
2021/11/23 00:15:37;;;;;;;40.10;21.03;;;1.60;99.90;;;;;;4392491;32;20228;-66
2021/11/23 00:18:11;;;;;;;37.07;20.33;;;1.70;99.90;;;;;;4393420;32;20213;-66
2021/11/23 00:20:40;;;;;;;42.90;21.10;;;1.70;99.90;;;;;;4393348;32;20414;-65
2021/11/23 00:23:08;;;;;;;40.67;20.60;;;1.70;99.90;;;;;;4393498;32;20425;-65
2021/11/23 00:25:35;;;;;;;42.93;20.93;;;1.70;99.90;;;;;;4394261;32;20459;-66
2021/11/23 00:28:02;;;;;;;37.60;20.00;;;1.70;99.90;;;;;;4393367;32;20547;-66
2021/11/23 00:30:30;;;;;;;42.70;21.57;;;1.70;99.90;;;;;;4393230;32;20402;-66
2021/11/23 00:32:58;;;;;;;42.47;21.10;;;1.70;99.90;;;;;;4392963;32;20443;-65
2021/11/23 00:35:27;;;;;;;39.60;20.10;;;1.70;99.90;;;;;;4392268;32;20186;-66
2021/11/23 00:37:55;;;;;;;41.63;21.07;;;1.70;99.90;;;;;;4394528;32;20425;-65
2021/11/23 00:40:22;;;;;;;41.30;21.90;;;1.70;99.90;;;;;;4393010;32;20139;-66
2021/11/23 00:42:49;;;;;;;39.07;20.17;;;1.70;99.90;;;;;;4393127;32;20242;-66
2021/11/23 00:45:17;;;;;;;39.40;20.57;;;1.80;99.90;;;;;;4392434;32;20238;-65
2021/11/23 00:47:44;;;;;;;40.27;20.77;;;1.70;99.90;;;;;;4391605;32;20525;-67
2021/11/23 00:50:13;;;;;;;46.53;22.47;;;1.70;99.90;;;;;;4391699;32;20537;-66
2021/11/23 00:52:41;;;;;;;45.80;21.77;;;1.80;99.90;;;;;;4393135;32;20525;-65
2021/11/23 00:55:08;;;;;;;44.50;22.63;;;1.80;99.90;;;;;;4391207;32;20171;-66
2021/11/23 00:57:35;;;;;;;46.30;23.37;;;1.80;99.90;;;;;;4393080;32;20238;-66
2021/11/23 01:00:06;;;;;;;49.17;24.97;;;1.90;99.90;;;;;;4392357;32;20179;-67
2021/11/23 01:02:33;;;;;;;53.17;25.20;;;1.90;99.90;;;;;;4394717;32;20159;-66
2021/11/23 01:05:00;;;;;;;52.23;26.23;;;1.90;99.90;;;;;;4393758;32;20233;-65
2021/11/23 01:07:27;;;;;;;55.57;27.40;;;1.90;99.90;;;;;;4396477;32;20225;-66
2021/11/23 01:09:55;;;;;;;55.17;27.03;;;1.90;99.90;;;;;;4396112;32;20462;-66
2021/11/23 01:12:23;;;;;;;63.07;29.40;;;1.90;99.90;;;;;;4396023;32;20525;-65
2021/11/23 01:14:50;;;;;;;71.87;29.87;;;1.90;99.90;;;;;;4394511;32;20529;-66
2021/11/23 01:17:18;;;;;;;67.63;30.50;;;1.90;99.90;;;;;;4395900;32;20526;-66
2021/11/23 01:19:45;;;;;;;71.27;30.67;;;1.90;99.90;;;;;;4396994;32;20424;-65
2021/11/23 01:22:13;;;;;;;66.00;29.60;;;1.90;99.90;;;;;;4395062;32;20484;-66
2021/11/23 01:24:40;;;;;;;63.33;29.50;;;1.90;99.90;;;;;;4395652;32;20525;-66
2021/11/23 01:27:07;;;;;;;65.20;30.60;;;1.90;99.90;;;;;;4395658;32;20201;-66
2021/11/23 01:29:35;;;;;;;66.77;28.77;;;1.90;99.90;;;;;;4395995;32;20187;-65
2021/11/23 01:32:03;;;;;;;68.67;29.70;;;1.90;99.90;;;;;;4394288;32;20604;-66
2021/11/23 01:34:31;;;;;;;71.60;31.00;;;1.90;99.90;;;;;;4396013;32;20549;-66
2021/11/23 01:36:58;;;;;;;72.67;30.27;;;1.80;99.90;;;;;;4395182;32;20459;-67
2021/11/23 01:39:26;;;;;;;63.67;30.03;;;1.80;99.90;;;;;;4395509;32;20136;-66
2021/11/23 01:41:53;;;;;;;71.13;30.33;;;1.80;99.90;;;;;;4394919;32;20230;-66
2021/11/23 01:44:20;;;;;;;65.27;29.93;;;1.80;99.90;;;;;;4393626;32;20521;-66
2021/11/23 01:46:47;;;;;;;61.50;29.37;;;1.80;99.90;;;;;;4394154;32;20539;-66
2021/11/23 01:49:15;;;;;;;64.97;30.63;;;1.70;99.90;;;;;;4395784;32;20217;-66
2021/11/23 01:51:43;;;;;;;67.93;30.50;;;1.80;99.90;;;;;;4395683;32;20206;-66
2021/11/23 01:54:11;;;;;;;59.10;28.87;;;1.80;99.90;;;;;;4395328;32;20396;-66
2021/11/23 01:56:39;;;;;;;62.17;29.43;;;1.80;99.90;;;;;;4393903;32;20586;-66
2021/11/23 01:59:06;;;;;;;63.90;29.50;;;1.80;99.90;;;;;;4394102;32;20175;-66
2021/11/23 02:01:33;;;;;;;63.93;28.13;;;1.80;99.90;;;;;;4393874;32;20264;-66
2021/11/23 02:04:00;;;;;;;58.27;26.93;;;1.80;99.90;;;;;;4395035;32;20199;-66
2021/11/23 02:06:27;;;;;;;54.33;24.87;;;1.70;99.90;;;;;;4393937;32;20551;-66
2021/11/23 02:08:55;;;;;;;58.00;26.73;;;1.80;99.90;;;;;;4395547;32;20197;-66
2021/11/23 02:11:22;;;;;;;54.33;25.07;;;1.70;99.90;;;;;;4393605;32;20168;-66
2021/11/23 02:13:49;;;;;;;49.37;23.83;;;1.70;99.90;;;;;;4393842;32;20167;-65
2021/11/23 02:16:16;;;;;;;51.40;23.63;;;1.70;99.90;;;;;;4395212;32;20190;-66
2021/11/23 02:18:44;;;;;;;50.17;23.13;;;1.60;99.90;;;;;;4393694;32;20190;-66
2021/11/23 02:21:11;;;;;;;46.10;22.33;;;1.60;99.90;;;;;;4393325;32;20206;-66
2021/11/23 02:23:39;;;;;;;45.53;21.77;;;1.60;99.90;;;;;;4393746;32;20476;-66
2021/11/23 02:26:07;;;;;;;46.97;20.60;;;1.60;99.90;;;;;;4395190;32;20604;-65
2021/11/23 02:28:34;;;;;;;41.37;20.80;;;1.50;99.90;;;;;;4395280;32;20154;-66
2021/11/23 02:31:02;;;;;;;42.03;20.93;;;1.50;99.90;;;;;;4393284;32;20641;-66
2021/11/23 02:33:30;;;;;;;41.97;21.23;;;1.50;99.90;;;;;;4394697;32;20556;-66
2021/11/23 02:36:01;;;;;;;40.97;20.30;;;1.40;99.90;;;;;;4393784;32;20609;-66
2021/11/23 02:38:29;;;;;;;47.07;21.10;;;1.50;99.90;;;;;;4394652;32;20194;-66
2021/11/23 02:40:57;;;;;;;46.07;21.40;;;1.60;99.90;;;;;;4392882;32;20601;-66
2021/11/23 02:43:24;;;;;;;42.03;20.20;;;1.50;99.90;;;;;;4394358;32;20230;-66
2021/11/23 02:45:53;;;;;;;46.13;20.73;;;1.50;99.90;;;;;;4394759;32;20213;-65
2021/11/23 02:48:20;;;;;;;44.03;21.83;;;1.50;99.90;;;;;;4394169;32;20175;-65
2021/11/23 02:50:55;;;;;;;45.63;22.63;;;1.40;99.90;;;;;;4393550;32;20229;-66
2021/11/23 02:53:24;;;;;;;56.07;24.77;;;1.50;99.90;;;;;;4394298;32;20147;-65
2021/11/23 02:55:51;;;;;;;55.50;23.67;;;1.40;99.90;;;;;;4394704;32;20218;-66
2021/11/23 02:58:18;;;;;;;48.67;22.83;;;1.40;99.90;;;;;;4393108;32;20228;-66
2021/11/23 03:00:46;;;;;;;49.97;21.77;;;1.30;99.90;;;;;;4392793;32;20167;-65
2021/11/23 03:03:13;;;;;;;46.23;22.77;;;1.30;99.90;;;;;;4393479;32;20209;-66
2021/11/23 03:05:41;;;;;;;53.40;22.77;;;1.30;99.90;;;;;;4393502;32;20217;-66
2021/11/23 03:08:08;;;;;;;46.30;21.70;;;1.30;99.90;;;;;;4393553;32;20190;-65
2021/11/23 03:10:35;;;;;;;46.97;22.43;;;1.20;99.90;;;;;;4395124;32;20204;-65
2021/11/23 03:13:03;;;;;;;53.23;23.50;;;1.30;99.90;;;;;;4393446;32;20218;-66
2021/11/23 03:15:30;;;;;;;48.17;22.20;;;1.30;99.90;;;;;;4393912;32;20228;-66
2021/11/23 03:17:58;;;;;;;48.73;22.20;;;1.40;99.90;;;;;;4395276;32;20163;-66
2021/11/23 03:20:26;;;;;;;49.10;21.87;;;1.30;99.90;;;;;;4392620;32;20195;-65
2021/11/23 03:22:54;;;;;;;47.77;20.93;;;1.30;99.90;;;;;;4393965;32;20175;-66
2021/11/23 03:25:22;;;;;;;45.23;19.93;;;1.40;99.90;;;;;;4394094;32;20207;-65
2021/11/23 03:27:50;;;;;;;39.87;19.63;;;1.50;99.90;;;;;;4392913;32;20186;-66
2021/11/23 03:30:22;;;;;;;38.20;18.50;;;1.50;99.90;;;;;;4394029;32;20198;-66
2021/11/23 03:32:51;;;;;;;41.03;20.10;;;1.50;99.90;;;;;;4394034;32;20127;-66
2021/11/23 03:35:18;;;;;;;41.07;18.50;;;1.50;99.90;;;;;;4394177;32;20213;-66
2021/11/23 03:37:47;;;;;;;40.43;20.13;;;1.60;99.90;;;;;;4395718;32;20411;-66
2021/11/23 03:40:14;;;;;;;35.23;18.23;;;1.60;99.90;;;;;;4392715;32;20209;-66
2021/11/23 03:42:42;;;;;;;35.70;17.60;;;1.60;99.90;;;;;;4393525;32;20215;-66
2021/11/23 03:45:10;;;;;;;40.90;19.43;;;1.60;99.90;;;;;;4392115;32;20198;-67
2021/11/23 03:47:37;;;;;;;34.47;17.17;;;1.60;99.90;;;;;;4392640;32;20172;-66
2021/11/23 03:50:08;;;;;;;32.17;15.33;;;1.70;99.90;;;;;;4392282;32;20179;-66
2021/11/23 03:52:35;;;;;;;31.80;15.10;;;1.70;99.90;;;;;;4394098;32;20171;-66
2021/11/23 03:55:05;;;;;;;31.17;14.60;;;1.70;99.90;;;;;;4393491;32;20171;-66
2021/11/23 03:57:32;;;;;;;29.30;15.17;;;1.80;99.90;;;;;;4392785;32;20229;-66
2021/11/23 03:59:59;;;;;;;29.43;14.93;;;1.80;99.90;;;;;;4394460;32;20151;-65
2021/11/23 04:02:26;;;;;;;30.63;15.97;;;1.90;99.90;;;;;;4394021;32;20601;-66
2021/11/23 04:04:54;;;;;;;30.83;15.93;;;2.00;99.90;;;;;;4394315;32;20162;-66
2021/11/23 04:07:21;;;;;;;27.03;14.70;;;2.00;99.90;;;;;;4393406;32;20164;-66
2021/11/23 04:09:48;;;;;;;33.73;16.10;;;2.00;99.90;;;;;;4393119;32;20502;-65
2021/11/23 04:12:16;;;;;;;32.03;15.67;;;2.00;99.90;;;;;;4392421;32;20213;-65
2021/11/23 04:14:44;;;;;;;32.53;16.37;;;1.90;99.90;;;;;;4392130;32;20202;-66
2021/11/23 04:17:11;;;;;;;31.37;15.43;;;1.90;99.90;;;;;;4391955;32;20225;-66
2021/11/23 04:19:38;;;;;;;28.03;14.83;;;1.90;99.90;;;;;;4391643;32;20179;-66
2021/11/23 04:22:07;;;;;;;28.23;14.80;;;1.90;99.90;;;;;;4393566;32;20456;-65
2021/11/23 04:24:35;;;;;;;29.83;14.50;;;1.90;99.90;;;;;;4393627;32;20231;-66
2021/11/23 04:27:02;;;;;;;29.87;14.53;;;2.00;99.90;;;;;;4391924;32;20212;-66
2021/11/23 04:29:30;;;;;;;25.27;13.17;;;1.90;99.90;;;;;;4393112;32;20168;-66
2021/11/23 04:31:57;;;;;;;24.57;13.47;;;1.90;99.90;;;;;;4393724;32;20197;-65
2021/11/23 04:34:28;;;;;;;24.80;12.57;;;1.90;99.90;;;;;;4391787;32;20225;-65
2021/11/23 04:36:55;;;;;;;24.13;12.33;;;1.90;99.90;;;;;;4392635;32;20407;-66
2021/11/23 04:39:22;;;;;;;29.33;13.00;;;1.90;99.90;;;;;;4393956;32;20170;-66
2021/11/23 04:41:49;;;;;;;23.10;12.47;;;1.90;99.90;;;;;;4392855;32;20163;-66
2021/11/23 04:44:16;;;;;;;23.40;12.23;;;1.90;99.90;;;;;;4393158;32;20179;-66
2021/11/23 04:46:43;;;;;;;21.13;12.23;;;1.90;99.90;;;;;;4393161;32;20198;-66
2021/11/23 04:49:10;;;;;;;23.33;12.67;;;1.90;99.90;;;;;;4392567;32;20194;-66
2021/11/23 04:51:37;;;;;;;22.30;12.63;;;1.90;99.90;;;;;;4392353;32;20401;-66
2021/11/23 04:54:04;;;;;;;21.80;11.60;;;1.90;99.90;;;;;;4391717;32;20175;-66
2021/11/23 04:56:32;;;;;;;19.53;10.83;;;1.90;99.90;;;;;;4379220;32;20245;-66
2021/11/23 04:58:59;;;;;;;20.03;11.27;;;1.90;99.90;;;;;;4391365;32;20191;-66
2021/11/23 05:01:26;;;;;;;21.80;10.70;;;1.90;99.90;;;;;;4391564;32;20200;-65
2021/11/23 05:03:55;;;;;;;16.63;9.33;;;1.90;99.90;;;;;;4391265;32;20167;-66
2021/11/23 05:06:22;;;;;;;16.93;9.90;;;1.90;99.90;;;;;;4391469;32;20226;-66
2021/11/23 05:08:49;;;;;;;14.80;9.00;;;2.00;99.90;;;;;;4393031;32;20175;-66
2021/11/23 05:11:17;;;;;;;16.33;8.53;;;2.00;99.90;;;;;;4394104;32;20178;-66
2021/11/23 05:13:44;;;;;;;13.53;8.33;;;2.00;99.90;;;;;;4391904;32;20231;-66
2021/11/23 05:16:11;;;;;;;14.37;8.57;;;2.10;99.90;;;;;;4393168;32;20460;-66
2021/11/23 05:18:39;;;;;;;13.63;7.40;;;2.00;99.90;;;;;;4392881;32;20179;-66
2021/11/23 05:21:06;;;;;;;12.23;7.40;;;2.00;99.90;;;;;;4393619;32;20551;-66
2021/11/23 05:23:33;;;;;;;11.23;7.17;;;2.00;99.90;;;;;;4391519;32;20198;-66
2021/11/23 05:26:00;;;;;;;12.40;7.03;;;2.00;99.90;;;;;;4393018;32;20175;-67
2021/11/23 05:28:27;;;;;;;12.33;6.90;;;2.10;99.90;;;;;;4391987;32;20167;-66
2021/11/23 05:30:54;;;;;;;9.60;5.60;;;2.10;99.90;;;;;;4391171;32;20234;-65
2021/11/23 05:33:22;;;;;;;9.97;5.30;;;2.10;99.90;;;;;;4392187;32;20266;-65
2021/11/23 05:35:50;;;;;;;9.40;5.03;;;2.10;99.90;;;;;;4391775;32;20214;-65
2021/11/23 05:38:20;;;;;;;9.10;5.13;;;2.10;99.90;;;;;;4391603;32;20179;-66
2021/11/23 05:40:48;;;;;;;8.47;4.37;;;2.20;99.90;;;;;;4392693;32;20220;-66
2021/11/23 05:43:15;;;;;;;11.30;4.27;;;2.10;99.90;;;;;;4391071;32;20166;-66
2021/11/23 05:45:43;;;;;;;7.03;4.10;;;2.10;99.90;;;;;;4392043;32;20213;-66
2021/11/23 05:48:11;;;;;;;7.87;4.50;;;2.20;99.90;;;;;;4393557;32;20251;-65
2021/11/23 05:50:40;;;;;;;7.33;4.33;;;2.10;99.90;;;;;;4394450;32;20174;-66
2021/11/23 05:53:08;;;;;;;10.20;5.03;;;2.20;99.90;;;;;;4395217;32;20190;-66
2021/11/23 05:55:35;;;;;;;7.37;4.50;;;2.20;99.90;;;;;;4395303;32;20238;-66
2021/11/23 05:58:04;;;;;;;7.07;4.50;;;2.10;99.90;;;;;;4393602;32;20228;-65
2021/11/23 06:00:31;;;;;;;7.07;4.50;;;2.10;99.90;;;;;;4394639;32;20183;-65
2021/11/23 06:02:59;;;;;;;7.57;4.53;;;2.10;99.90;;;;;;4394120;32;20179;-65
2021/11/23 06:05:27;;;;;;;8.87;4.50;;;2.10;99.90;;;;;;4393436;32;20242;-65
2021/11/23 06:07:54;;;;;;;6.97;4.20;;;2.10;99.90;;;;;;4395279;32;20167;-65
2021/11/23 06:10:21;;;;;;;8.00;4.33;;;2.10;99.90;;;;;;4394966;32;20183;-66
2021/11/23 06:12:49;;;;;;;6.77;4.17;;;2.10;99.90;;;;;;4395262;32;20160;-65
2021/11/23 06:15:18;;;;;;;8.57;4.47;;;2.20;99.90;;;;;;4393312;32;20532;-65
2021/11/23 06:17:47;;;;;;;7.47;5.10;;;2.20;99.90;;;;;;4396392;32;20193;-66
2021/11/23 06:20:14;;;;;;;6.93;3.90;;;2.20;99.90;;;;;;4393111;32;20187;-66
2021/11/23 06:22:41;;;;;;;6.77;4.17;;;2.20;99.90;;;;;;4394118;32;20199;-66
2021/11/23 06:25:09;;;;;;;7.27;4.30;;;2.20;99.90;;;;;;4394166;32;20198;-66
2021/11/23 06:27:37;;;;;;;6.37;4.17;;;2.20;99.90;;;;;;4393615;32;20236;-66
2021/11/23 06:30:06;;;;;;;9.03;4.40;;;2.20;99.90;;;;;;4394610;32;20232;-66
2021/11/23 06:32:34;;;;;;;9.83;4.67;;;2.20;99.90;;;;;;4393472;32;20226;-66
2021/11/23 06:35:01;;;;;;;9.20;4.27;;;2.20;99.90;;;;;;4393494;32;20227;-65
2021/11/23 06:37:29;;;;;;;8.10;4.00;;;2.20;99.90;;;;;;4393489;32;20202;-65
2021/11/23 06:39:56;;;;;;;8.00;4.30;;;2.10;99.90;;;;;;4393139;32;20159;-65
2021/11/23 06:42:23;;;;;;;7.07;4.50;;;2.10;99.90;;;;;;4392727;32;20246;-65
2021/11/23 06:44:51;;;;;;;7.63;4.13;;;2.00;99.90;;;;;;4393869;32;20167;-65
2021/11/23 06:47:18;;;;;;;9.00;4.47;;;2.00;99.90;;;;;;4393287;32;20218;-65
2021/11/23 06:49:46;;;;;;;6.63;4.20;;;2.00;99.90;;;;;;4394278;32;20228;-65
2021/11/23 06:52:13;;;;;;;6.33;4.10;;;2.00;99.90;;;;;;4394246;32;20206;-66
2021/11/23 06:54:40;;;;;;;7.20;3.93;;;2.00;99.90;;;;;;4394359;32;20167;-65
2021/11/23 06:57:06;;;;;;;10.13;4.17;;;1.90;99.90;;;;;;4393081;32;20233;-65
2021/11/23 06:59:37;;;;;;;7.33;3.93;;;2.00;99.90;;;;;;4392769;32;20190;-65
2021/11/23 07:02:04;;;;;;;8.80;4.07;;;2.00;99.90;;;;;;4393897;32;20179;-65
2021/11/23 07:04:33;;;;;;;6.73;3.67;;;2.10;99.90;;;;;;4392532;32;20248;-65
2021/11/23 07:07:01;;;;;;;4.63;3.13;;;2.10;99.90;;;;;;4392515;32;20175;-66
2021/11/23 07:09:28;;;;;;;6.00;3.30;;;2.10;99.90;;;;;;4393474;32;20167;-65
2021/11/23 07:11:55;;;;;;;6.57;3.30;;;2.20;99.90;;;;;;4393716;32;20189;-65
2021/11/23 07:14:23;;;;;;;6.67;3.03;;;2.20;99.90;;;;;;4393320;32;20207;-65
2021/11/23 07:16:51;;;;;;;7.50;3.50;;;2.30;99.90;;;;;;4395424;32;20159;-65
2021/11/23 07:19:18;;;;;;;6.23;3.00;;;2.30;99.90;;;;;;4394350;32;20193;-65
2021/11/23 07:21:46;;;;;;;6.47;3.13;;;2.40;99.90;;;;;;4393111;32;20214;-65
2021/11/23 07:24:13;;;;;;;8.37;3.17;;;2.50;99.90;;;;;;4393504;32;20193;-65
2021/11/23 07:26:41;;;;;;;6.07;2.93;;;2.50;99.90;;;;;;4394145;32;20171;-65
2021/11/23 07:29:09;;;;;;;5.00;2.97;;;2.60;99.90;;;;;;4392974;32;20170;-66
2021/11/23 07:31:36;;;;;;;4.70;2.97;;;2.60;99.90;;;;;;4392868;32;20167;-65
2021/11/23 07:34:05;;;;;;;5.80;3.20;;;2.60;99.90;;;;;;4392655;32;20168;-65
2021/11/23 07:36:32;;;;;;;5.37;3.10;;;2.60;99.90;;;;;;4392908;32;20171;-65
2021/11/23 07:39:00;;;;;;;5.40;3.00;;;2.70;99.90;;;;;;4392724;32;20171;-65
2021/11/23 07:41:28;;;;;;;5.00;2.90;;;2.60;99.90;;;;;;4391810;32;20194;-66
2021/11/23 07:43:56;;;;;;;5.83;3.43;;;2.60;99.90;;;;;;4393034;32;20179;-65
2021/11/23 07:46:25;;;;;;;5.60;2.87;;;2.60;99.90;;;;;;4393767;32;20199;-65
2021/11/23 07:48:54;;;;;;;6.43;3.63;;;2.70;99.90;;;;;;4392450;32;20298;-66
2021/11/23 07:51:22;;;;;;;6.47;3.33;;;2.60;99.90;;;;;;4391792;32;20414;-65
2021/11/23 07:53:50;;;;;;;5.87;3.57;;;2.70;99.90;;;;;;4392691;32;20163;-65
2021/11/23 07:56:17;;;;;;;8.00;3.97;;;2.70;99.90;;;;;;4394283;32;20203;-66
2021/11/23 07:58:44;;;;;;;8.50;3.27;;;2.70;99.90;;;;;;4392525;32;20250;-65
2021/11/23 08:01:12;;;;;;;5.43;2.93;;;2.80;99.90;;;;;;4393653;32;20147;-65
2021/11/23 08:03:40;;;;;;;7.93;3.67;;;2.80;99.90;;;;;;4392621;32;20183;-66
2021/11/23 08:06:08;;;;;;;7.67;3.30;;;2.90;99.90;;;;;;4391674;32;20183;-65
2021/11/23 08:08:35;;;;;;;7.90;3.40;;;2.90;99.90;;;;;;4391721;32;20171;-65
2021/11/23 08:11:03;;;;;;;9.93;3.90;;;2.90;99.90;;;;;;4391994;32;20183;-66
2021/11/23 08:13:30;;;;;;;7.63;3.43;;;2.90;99.90;;;;;;4392235;32;20171;-65
2021/11/23 08:16:02;;;;;;;7.80;3.47;;;2.90;99.90;;;;;;4391840;32;20179;-65
2021/11/23 08:18:34;;;;;;;5.83;3.60;;;2.80;99.90;;;;;;4392548;32;20182;-66
2021/11/23 08:21:02;;;;;;;7.70;3.80;;;2.80;99.90;;;;;;4393109;32;20175;-66
2021/11/23 08:23:30;;;;;;;7.53;3.70;;;2.90;99.90;;;;;;4393438;32;20183;-65
2021/11/23 08:25:57;;;;;;;6.10;3.53;;;2.90;99.90;;;;;;4379605;32;20237;-66
2021/11/23 08:28:26;;;;;;;8.40;3.73;;;2.90;99.90;;;;;;4391893;32;20217;-66
2021/11/23 08:30:56;;;;;;;9.23;3.87;;;2.80;99.90;;;;;;4392386;32;20183;-66
2021/11/23 08:33:23;;;;;;;5.33;3.60;;;2.80;99.90;;;;;;4393143;32;20195;-65
2021/11/23 08:35:51;;;;;;;6.73;3.70;;;2.70;99.90;;;;;;4391962;32;20202;-65
2021/11/23 08:38:18;;;;;;;7.40;4.00;;;2.70;99.90;;;;;;4392823;32;20171;-65
2021/11/23 08:40:45;;;;;;;8.43;4.33;;;2.70;99.90;;;;;;4393411;32;20193;-66
2021/11/23 08:43:13;;;;;;;7.37;4.10;;;2.70;99.90;;;;;;4392539;32;20194;-66
2021/11/23 08:45:41;;;;;;;6.33;3.97;;;2.70;99.90;;;;;;4392193;32;20234;-66
2021/11/23 08:48:08;;;;;;;9.97;4.30;;;2.70;99.90;;;;;;4393091;32;20244;-66
2021/11/23 08:50:36;;;;;;;6.90;4.00;;;2.70;99.90;;;;;;4393139;32;20305;-65
2021/11/23 08:53:07;;;;;;;9.90;4.33;;;2.70;99.90;;;;;;4391993;32;20358;-66
2021/11/23 08:55:36;;;;;;;9.60;4.60;;;2.80;99.90;;;;;;4391449;32;20498;-66
2021/11/23 08:58:08;;;;;;;9.40;5.00;;;2.70;99.90;;;;;;4392254;32;20219;-66
2021/11/23 09:00:37;;;;;;;7.77;4.90;;;2.70;99.90;;;;;;4394480;32;20519;-66
2021/11/23 09:03:04;;;;;;;9.90;5.23;;;2.70;99.90;;;;;;4391334;32;20190;-66
2021/11/23 09:05:35;;;;;;;10.13;5.10;;;2.70;99.90;;;;;;4392266;32;20156;-66
2021/11/23 09:08:05;;;;;;;8.60;5.13;;;2.80;99.90;;;;;;4391888;32;20259;-66
2021/11/23 09:10:37;;;;;;;10.57;5.87;;;2.80;99.90;;;;;;4392612;32;20139;-66
2021/11/23 09:13:05;;;;;;;10.00;5.73;;;2.80;99.90;;;;;;4392781;32;20180;-67
2021/11/23 09:15:33;;;;;;;10.70;6.27;;;2.70;99.90;;;;;;4392129;32;20186;-65
2021/11/23 09:18:01;;;;;;;12.03;6.37;;;2.80;99.90;;;;;;4392911;32;20224;-66
2021/11/23 09:20:35;;;;;;;12.63;6.60;;;2.70;99.90;;;;;;4391537;32;20183;-66
2021/11/23 09:23:09;;;;;;;9.23;6.10;;;2.70;99.90;;;;;;4394010;32;20203;-66
2021/11/23 09:25:39;;;;;;;10.80;6.50;;;2.70;99.90;;;;;;4395404;32;20179;-67
2021/11/23 09:28:08;;;;;;;9.77;6.40;;;2.70;99.90;;;;;;4394928;32;20175;-66
2021/11/23 09:30:35;;;;;;;10.60;6.77;;;2.60;99.90;;;;;;4394556;32;20183;-66
2021/11/23 09:33:03;;;;;;;13.67;7.03;;;2.60;99.90;;;;;;4394553;32;20168;-65
2021/11/23 09:35:30;;;;;;;12.83;7.40;;;2.60;99.90;;;;;;4394149;32;20194;-66
2021/11/23 09:37:59;;;;;;;13.17;6.83;;;2.60;99.90;;;;;;4394755;32;20178;-66
2021/11/23 09:40:29;;;;;;;11.90;6.90;;;2.60;99.90;;;;;;4394391;32;20266;-66
2021/11/23 09:42:56;;;;;;;13.63;8.13;;;2.60;99.90;;;;;;4393966;32;20193;-66
2021/11/23 09:45:24;;;;;;;12.33;7.67;;;2.60;99.90;;;;;;4395576;32;20213;-66
2021/11/23 09:47:52;;;;;;;12.50;8.03;;;2.60;99.90;;;;;;4395621;32;20261;-66
2021/11/23 09:50:20;;;;;;;16.23;7.97;;;2.60;99.90;;;;;;4393748;32;20180;-66
2021/11/23 09:52:47;;;;;;;13.07;8.03;;;2.60;99.90;;;;;;4394537;32;20183;-65
2021/11/23 09:55:16;;;;;;;13.40;8.20;;;2.60;99.90;;;;;;4395162;32;20201;-66
2021/11/23 09:57:43;;;;;;;13.10;8.27;;;2.60;99.90;;;;;;4395686;32;20214;-66
2021/11/23 10:00:23;;;;;;;16.10;8.73;;;2.70;99.90;;;;;;4393556;32;20214;-65
2021/11/23 10:02:53;;;;;;;14.60;8.70;;;2.70;99.90;;;;;;4393350;32;20171;-66
2021/11/23 10:05:21;;;;;;;13.17;8.60;;;2.70;99.90;;;;;;4395307;32;20263;-66
2021/11/23 10:07:49;;;;;;;14.27;8.60;;;2.80;99.90;;;;;;4393582;32;20224;-65
2021/11/23 10:10:23;;;;;;;15.40;8.63;;;2.80;99.90;;;;;;4393660;32;20239;-66
2021/11/23 10:12:59;;;;;;;12.93;8.60;;;2.80;99.90;;;;;;4393704;32;20183;-65
2021/11/23 10:15:29;;;;;;;15.30;8.37;;;2.90;99.90;;;;;;4393911;32;20261;-65
2021/11/23 10:18:15;;;;;;;14.47;8.93;;;2.80;99.90;;;;;;4395075;32;20171;-65
2021/11/23 10:20:51;;;;;;;19.20;8.97;;;2.90;99.90;;;;;;4392990;32;20205;-65
2021/11/23 10:23:21;;;;;;;14.03;8.83;;;2.90;99.90;;;;;;4394290;32;20175;-65
2021/11/23 10:26:15;;;;;;;15.67;9.37;;;2.90;99.90;;;;;;4393586;32;20266;-65
2021/11/23 10:28:48;;;;;;;16.07;9.30;;;2.90;99.90;;;;;;4336831;33;20203;-66
2021/11/23 10:31:15;;;;;;;16.50;9.90;;;2.90;99.90;;;;;;4336062;33;20251;-65
2021/11/23 10:33:43;;;;;;;18.23;10.30;;;2.90;99.90;;;;;;4335224;33;20260;-65
2021/11/23 10:36:16;;;;;;;17.27;10.70;;;2.80;99.90;;;;;;4335206;33;20493;-65
2021/11/23 10:38:44;;;;;;;17.57;10.93;;;2.80;99.90;;;;;;4347796;33;20222;-65
2021/11/23 10:41:14;;;;;;;18.97;11.60;;;2.80;99.90;;;;;;4334554;33;20192;-66
2021/11/23 10:43:43;;;;;;;18.67;12.17;;;2.70;99.90;;;;;;4334928;33;20191;-66
2021/11/23 10:46:16;;;;;;;22.20;12.67;;;2.70;99.90;;;;;;4335062;33;20181;-65
2021/11/23 10:49:10;;;;;;;23.20;12.93;;;2.80;99.90;;;;;;4335477;33;20218;-65
2021/11/23 10:51:40;;;;;;;20.30;13.13;;;2.70;99.90;;;;;;4345525;33;20223;-65
2021/11/23 10:54:18;;;;;;;24.67;14.53;;;2.70;99.90;;;;;;4336071;33;20224;-65
2021/11/23 10:57:00;;;;;;;22.63;14.40;;;2.70;99.90;;;;;;4335806;33;20181;-65
2021/11/23 10:59:34;;;;;;;23.20;14.70;;;2.80;99.90;;;;;;4347221;33;20212;-66
2021/11/23 11:02:02;;;;;;;24.47;14.80;;;2.80;99.90;;;;;;4335577;33;20214;-66
2021/11/23 11:04:34;;;;;;;27.53;15.57;;;2.80;99.90;;;;;;4336535;33;20380;-65
2021/11/23 11:07:03;;;;;;;22.80;14.73;;;2.80;99.90;;;;;;4377631;32;20204;-65
2021/11/23 11:09:31;;;;;;;25.57;15.83;;;2.80;99.90;;;;;;4380923;32;20456;-66
2021/11/23 11:11:58;;;;;;;27.30;16.70;;;2.80;99.90;;;;;;4377824;32;20168;-66
2021/11/23 11:14:28;;;;;;;28.13;17.07;;;2.80;99.90;;;;;;4382803;32;20201;-66
2021/11/23 11:16:56;;;;;;;26.50;16.10;;;2.80;99.90;;;;;;4393478;32;20472;-67
2021/11/23 11:19:47;;;;;;;26.37;16.50;;;2.80;99.90;;;;;;4393524;32;20274;-66
2021/11/23 11:22:17;;;;;;;28.73;16.83;;;2.80;99.90;;;;;;4392894;32;20446;-65
2021/11/23 11:25:07;;;;;;;29.70;17.13;;;2.80;99.90;;;;;;4392213;32;20203;-66
2021/11/23 11:27:36;;;;;;;28.67;17.30;;;2.80;99.90;;;;;;4393789;32;20419;-65
2021/11/23 11:30:27;;;;;;;31.00;18.23;;;2.80;99.90;;;;;;4392790;32;20273;-65
2021/11/23 11:33:06;;;;;;;30.17;18.50;;;2.90;99.90;;;;;;4393312;32;20425;-65
2021/11/23 11:35:37;;;;;;;34.73;18.57;;;2.90;99.90;;;;;;4393535;32;20370;-65
2021/11/23 11:38:33;;;;;;;30.87;18.87;;;2.90;99.90;;;;;;4393772;32;20171;-66
2021/11/23 11:41:25;;;;;;;30.50;18.13;;;2.90;99.90;;;;;;4392229;32;20202;-66
2021/11/23 11:44:09;;;;;;;33.20;18.80;;;2.90;99.90;;;;;;4406273;32;20239;-65
2021/11/23 11:46:36;;;;;;;32.17;18.10;;;2.90;99.90;;;;;;4393662;32;20189;-65
2021/11/23 11:49:05;;;;;;;33.93;19.97;;;2.90;99.90;;;;;;4392245;32;20225;-65
2021/11/23 11:51:40;;;;;;;34.80;20.07;;;2.90;99.90;;;;;;4392360;32;20488;-65
2021/11/23 11:54:22;;;;;;;32.23;19.87;;;2.90;99.90;;;;;;4393688;32;20250;-65
2021/11/23 11:56:51;;;;;;;36.63;20.60;;;3.00;99.90;;;;;;4391968;32;20222;-66
2021/11/23 11:59:18;;;;;;;35.50;20.80;;;3.00;99.90;;;;;;4391440;32;20210;-66
2021/11/23 12:02:04;;;;;;;36.03;20.40;;;3.00;99.90;;;;;;4393641;32;20200;-66
2021/11/23 12:04:51;;;;;;;38.73;20.63;;;2.90;99.90;;;;;;4391272;32;20193;-65
2021/11/23 12:07:18;;;;;;;40.90;21.23;;;3.00;99.90;;;;;;4392770;32;20206;-67
2021/11/23 12:09:49;;;;;;;37.37;20.67;;;3.00;99.90;;;;;;4393160;32;20167;-65
2021/11/23 12:12:16;;;;;;;37.63;20.47;;;3.00;99.90;;;;;;4393031;32;20174;-66
2021/11/23 12:14:52;;;;;;;37.63;21.43;;;3.10;99.90;;;;;;4393139;32;20180;-66
2021/11/23 12:17:51;;;;;;;38.60;21.53;;;3.10;99.90;;;;;;4392177;32;20186;-66
2021/11/23 12:20:39;;;;;;;34.43;19.57;;;3.20;99.90;;;;;;4392905;32;20206;-66
2021/11/23 12:23:15;;;;;;;37.27;20.43;;;3.20;99.90;;;;;;4392447;32;20189;-66
2021/11/23 12:25:57;;;;;;;37.03;20.73;;;3.20;99.90;;;;;;4391562;32;20182;-67
2021/11/23 12:28:27;;;;;;;35.00;19.70;;;3.20;99.90;;;;;;4391180;32;20281;-67
2021/11/23 12:30:55;;;;;;;34.07;19.80;;;3.30;99.90;;;;;;4392615;32;20186;-67
2021/11/23 12:33:22;;;;;;;32.70;19.33;;;3.30;99.90;;;;;;4392400;32;20237;-66
2021/11/23 12:35:50;;;;;;;34.67;19.90;;;3.30;99.90;;;;;;4392458;32;20168;-66
2021/11/23 12:38:26;;;;;;;36.93;19.60;;;3.30;99.90;;;;;;4391482;32;20171;-66
2021/11/23 12:40:55;;;;;;;36.87;19.00;;;3.30;99.90;;;;;;4390197;32;20217;-66
2021/11/23 12:43:22;;;;;;;37.23;20.30;;;3.30;99.90;;;;;;4391511;32;20271;-66
2021/11/23 12:45:49;;;;;;;38.17;20.47;;;3.30;99.90;;;;;;4392574;32;20244;-66
2021/11/23 12:48:29;;;;;;;35.10;20.20;;;3.30;99.90;;;;;;4392041;32;20190;-66
2021/11/23 12:50:56;;;;;;;35.03;19.83;;;3.30;99.90;;;;;;4392372;32;20209;-66
2021/11/23 12:53:24;;;;;;;37.07;20.20;;;3.30;99.90;;;;;;4390796;32;20455;-66